sensor_id;sensor_type;location;lat;lon;timestamp;pressure;altitude;pressure_sealevel;temperature;humidity
35778;BME280;21899;42.662;23.316;2023-08-17T00:02:13;94512.44;;;22.20;90.12
35778;BME280;21899;42.662;23.316;2023-08-17T00:04:39;94510.00;;;22.13;90.65
35778;BME280;21899;42.662;23.316;2023-08-17T00:07:05;94511.53;;;22.14;91.37
35778;BME280;21899;42.662;23.316;2023-08-17T00:09:31;94516.69;;;22.12;91.92
35778;BME280;21899;42.662;23.316;2023-08-17T00:11:57;94517.91;;;22.11;92.34
35778;BME280;21899;42.662;23.316;2023-08-17T00:14:22;94510.34;;;22.06;92.91
35778;BME280;21899;42.662;23.316;2023-08-17T00:16:49;94513.81;;;21.98;93.59
35778;BME280;21899;42.662;23.316;2023-08-17T00:19:15;94513.03;;;21.97;94.02
35778;BME280;21899;42.662;23.316;2023-08-17T00:21:41;94517.56;;;22.00;94.91
35778;BME280;21899;42.662;23.316;2023-08-17T00:24:06;94515.19;;;21.93;95.34
35778;BME280;21899;42.662;23.316;2023-08-17T00:26:32;94520.16;;;21.94;96.23
35778;BME280;21899;42.662;23.316;2023-08-17T00:28:57;94518.34;;;21.82;96.91
35778;BME280;21899;42.662;23.316;2023-08-17T00:31:23;94510.63;;;21.81;97.26
35778;BME280;21899;42.662;23.316;2023-08-17T00:33:48;94506.94;;;21.75;97.56
35778;BME280;21899;42.662;23.316;2023-08-17T00:36:13;94512.72;;;21.77;97.44
35778;BME280;21899;42.662;23.316;2023-08-17T00:38:40;94509.38;;;21.73;97.82
35778;BME280;21899;42.662;23.316;2023-08-17T00:41:05;94507.56;;;21.70;97.75
35778;BME280;21899;42.662;23.316;2023-08-17T00:43:31;94508.44;;;21.67;97.64
35778;BME280;21899;42.662;23.316;2023-08-17T00:45:56;94509.94;;;21.59;97.33
35778;BME280;21899;42.662;23.316;2023-08-17T00:48:23;94498.00;;;21.56;96.13
35778;BME280;21899;42.662;23.316;2023-08-17T00:50:50;94500.53;;;21.51;95.42
35778;BME280;21899;42.662;23.316;2023-08-17T00:53:17;94507.34;;;21.46;94.06
35778;BME280;21899;42.662;23.316;2023-08-17T00:55:43;94502.94;;;21.40;93.66
35778;BME280;21899;42.662;23.316;2023-08-17T00:58:08;94506.84;;;21.39;92.85
35778;BME280;21899;42.662;23.316;2023-08-17T01:00:34;94488.56;;;21.30;91.75
35778;BME280;21899;42.662;23.316;2023-08-17T01:03:00;94494.00;;;21.30;90.57
35778;BME280;21899;42.662;23.316;2023-08-17T01:05:25;94507.03;;;21.35;88.88
35778;BME280;21899;42.662;23.316;2023-08-17T01:07:50;94491.72;;;21.29;86.89
35778;BME280;21899;42.662;23.316;2023-08-17T01:10:16;94504.59;;;21.37;84.37
35778;BME280;21899;42.662;23.316;2023-08-17T01:15:35;94491.28;;;21.39;83.17
35778;BME280;21899;42.662;23.316;2023-08-17T01:18:23;94495.09;;;21.42;81.84
35778;BME280;21899;42.662;23.316;2023-08-17T01:20:52;94493.88;;;21.43;80.95
35778;BME280;21899;42.662;23.316;2023-08-17T01:23:19;94481.47;;;21.42;79.76
35778;BME280;21899;42.662;23.316;2023-08-17T01:25:44;94493.88;;;21.52;78.62
35778;BME280;21899;42.662;23.316;2023-08-17T01:28:10;94485.41;;;21.50;78.09
35778;BME280;21899;42.662;23.316;2023-08-17T01:30:58;94496.00;;;21.48;77.85
35778;BME280;21899;42.662;23.316;2023-08-17T01:33:56;94490.25;;;21.46;76.44
35778;BME280;21899;42.662;23.316;2023-08-17T01:36:26;94497.38;;;21.43;76.53
35778;BME280;21899;42.662;23.316;2023-08-17T01:38:52;94491.75;;;21.38;77.11
35778;BME280;21899;42.662;23.316;2023-08-17T01:41:22;94491.13;;;21.34;77.51
35778;BME280;21899;42.662;23.316;2023-08-17T01:43:48;94491.56;;;21.32;77.39
35778;BME280;21899;42.662;23.316;2023-08-17T01:46:14;94486.56;;;21.31;76.21
35778;BME280;21899;42.662;23.316;2023-08-17T01:48:41;94490.84;;;21.32;76.23
35778;BME280;21899;42.662;23.316;2023-08-17T01:51:07;94481.13;;;21.22;75.95
35778;BME280;21899;42.662;23.316;2023-08-17T01:53:32;94484.13;;;21.24;76.06
35778;BME280;21899;42.662;23.316;2023-08-17T01:55:58;94482.16;;;21.15;76.13
35778;BME280;21899;42.662;23.316;2023-08-17T01:58:23;94493.19;;;21.21;75.82
35778;BME280;21899;42.662;23.316;2023-08-17T02:00:48;94485.03;;;21.21;75.30
35778;BME280;21899;42.662;23.316;2023-08-17T02:03:14;94482.44;;;21.17;75.17
35778;BME280;21899;42.662;23.316;2023-08-17T02:05:44;94480.50;;;21.18;75.08
35778;BME280;21899;42.662;23.316;2023-08-17T02:08:09;94488.97;;;21.20;75.38
35778;BME280;21899;42.662;23.316;2023-08-17T02:10:35;94493.19;;;21.21;75.72
35778;BME280;21899;42.662;23.316;2023-08-17T02:13:00;94492.91;;;21.19;76.24
35778;BME280;21899;42.662;23.316;2023-08-17T02:15:25;94484.69;;;21.10;76.83
35778;BME280;21899;42.662;23.316;2023-08-17T02:17:51;94484.06;;;21.06;77.48
35778;BME280;21899;42.662;23.316;2023-08-17T02:20:16;94490.88;;;21.01;78.37
35778;BME280;21899;42.662;23.316;2023-08-17T02:22:42;94472.34;;;20.87;78.82
35778;BME280;21899;42.662;23.316;2023-08-17T02:25:07;94478.84;;;20.90;79.29
35778;BME280;21899;42.662;23.316;2023-08-17T02:27:33;94479.16;;;20.92;79.48
35778;BME280;21899;42.662;23.316;2023-08-17T02:29:58;94471.28;;;20.85;79.74
35778;BME280;21899;42.662;23.316;2023-08-17T02:32:24;94478.66;;;20.84;80.03
35778;BME280;21899;42.662;23.316;2023-08-17T02:34:49;94486.69;;;20.88;79.91
35778;BME280;21899;42.662;23.316;2023-08-17T02:37:15;94488.03;;;20.83;80.50
35778;BME280;21899;42.662;23.316;2023-08-17T02:39:40;94479.09;;;20.73;80.70
35778;BME280;21899;42.662;23.316;2023-08-17T02:42:06;94486.81;;;20.75;81.03
35778;BME280;21899;42.662;23.316;2023-08-17T02:44:31;94485.13;;;20.77;81.11
35778;BME280;21899;42.662;23.316;2023-08-17T02:46:56;94480.59;;;20.74;81.41
35778;BME280;21899;42.662;23.316;2023-08-17T02:49:22;94478.59;;;20.66;81.99
35778;BME280;21899;42.662;23.316;2023-08-17T02:51:47;94472.66;;;20.58;82.10
35778;BME280;21899;42.662;23.316;2023-08-17T02:54:13;94473.44;;;20.59;82.21
35778;BME280;21899;42.662;23.316;2023-08-17T02:56:38;94470.84;;;20.55;82.71
35778;BME280;21899;42.662;23.316;2023-08-17T02:59:03;94466.88;;;20.47;82.85
35778;BME280;21899;42.662;23.316;2023-08-17T03:01:29;94467.75;;;20.44;83.45
35778;BME280;21899;42.662;23.316;2023-08-17T03:03:56;94475.59;;;20.42;84.04
35778;BME280;21899;42.662;23.316;2023-08-17T03:06:21;94459.53;;;20.35;84.63
35778;BME280;21899;42.662;23.316;2023-08-17T03:08:47;94460.25;;;20.27;84.85
35778;BME280;21899;42.662;23.316;2023-08-17T03:11:12;94475.84;;;20.35;84.80
35778;BME280;21899;42.662;23.316;2023-08-17T03:13:37;94481.22;;;20.26;85.27
35778;BME280;21899;42.662;23.316;2023-08-17T03:16:03;94480.38;;;20.29;85.43
35778;BME280;21899;42.662;23.316;2023-08-17T03:18:28;94480.94;;;20.24;85.40
35778;BME280;21899;42.662;23.316;2023-08-17T03:20:54;94475.94;;;20.23;85.49
35778;BME280;21899;42.662;23.316;2023-08-17T03:23:19;94481.19;;;20.17;85.67
35778;BME280;21899;42.662;23.316;2023-08-17T03:25:44;94476.94;;;20.16;85.64
35778;BME280;21899;42.662;23.316;2023-08-17T03:28:11;94479.44;;;20.11;86.02
35778;BME280;21899;42.662;23.316;2023-08-17T03:30:36;94469.59;;;20.04;85.65
35778;BME280;21899;42.662;23.316;2023-08-17T03:33:02;94467.59;;;20.05;85.19
35778;BME280;21899;42.662;23.316;2023-08-17T03:35:27;94488.03;;;20.09;85.09
35778;BME280;21899;42.662;23.316;2023-08-17T03:37:53;94478.34;;;20.08;84.34
35778;BME280;21899;42.662;23.316;2023-08-17T03:40:18;94482.81;;;20.15;83.91
35778;BME280;21899;42.662;23.316;2023-08-17T03:42:44;94483.56;;;20.15;83.09
35778;BME280;21899;42.662;23.316;2023-08-17T03:45:09;94489.34;;;20.17;82.57
35778;BME280;21899;42.662;23.316;2023-08-17T03:47:34;94486.94;;;20.19;82.22
35778;BME280;21899;42.662;23.316;2023-08-17T03:50:00;94486.28;;;20.15;81.91
35778;BME280;21899;42.662;23.316;2023-08-17T03:52:25;94491.16;;;20.20;81.30
35778;BME280;21899;42.662;23.316;2023-08-17T03:54:51;94497.25;;;20.24;80.39
35778;BME280;21899;42.662;23.316;2023-08-17T03:57:16;94492.28;;;20.32;79.80
35778;BME280;21899;42.662;23.316;2023-08-17T03:59:41;94494.25;;;20.31;79.11
35778;BME280;21899;42.662;23.316;2023-08-17T04:02:07;94497.34;;;20.42;78.72
35778;BME280;21899;42.662;23.316;2023-08-17T04:04:32;94496.59;;;20.42;78.84
35778;BME280;21899;42.662;23.316;2023-08-17T04:06:58;94505.75;;;20.57;78.28
35778;BME280;21899;42.662;23.316;2023-08-17T04:09:23;94501.38;;;20.59;78.01
35778;BME280;21899;42.662;23.316;2023-08-17T04:11:48;94508.09;;;20.67;nan
35778;BME280;21899;42.662;23.316;2023-08-17T04:14:14;94499.06;;;20.80;77.38
35778;BME280;21899;42.662;23.316;2023-08-17T04:16:39;94489.41;;;20.88;76.54
35778;BME280;21899;42.662;23.316;2023-08-17T04:19:05;94492.44;;;20.90;75.19
35778;BME280;21899;42.662;23.316;2023-08-17T04:21:30;94497.53;;;21.09;74.96
35778;BME280;21899;42.662;23.316;2023-08-17T04:23:56;94489.38;;;21.09;74.36
35778;BME280;21899;42.662;23.316;2023-08-17T04:26:21;94494.88;;;21.27;73.24
35778;BME280;21899;42.662;23.316;2023-08-17T04:28:46;94505.69;;;21.49;72.09
35778;BME280;21899;42.662;23.316;2023-08-17T04:31:12;94498.72;;;21.48;71.60
35778;BME280;21899;42.662;23.316;2023-08-17T04:33:39;94491.81;;;21.65;70.75
35778;BME280;21899;42.662;23.316;2023-08-17T04:36:04;94495.31;;;22.02;68.85
35778;BME280;21899;42.662;23.316;2023-08-17T04:38:30;94483.03;;;22.42;67.07
35778;BME280;21899;42.662;23.316;2023-08-17T04:40:55;94491.41;;;22.89;63.14
35778;BME280;21899;42.662;23.316;2023-08-17T04:43:21;94492.47;;;23.34;60.76
35778;BME280;21899;42.662;23.316;2023-08-17T04:45:46;94502.03;;;23.62;58.58
35778;BME280;21899;42.662;23.316;2023-08-17T04:48:13;94491.03;;;23.94;57.31
35778;BME280;21899;42.662;23.316;2023-08-17T04:50:38;94490.16;;;24.26;55.45
35778;BME280;21899;42.662;23.316;2023-08-17T04:53:04;94498.25;;;24.59;54.42
35778;BME280;21899;42.662;23.316;2023-08-17T04:55:29;94495.63;;;24.79;52.81
35778;BME280;21899;42.662;23.316;2023-08-17T04:57:54;94494.84;;;25.08;52.13
35778;BME280;21899;42.662;23.316;2023-08-17T05:00:20;94488.97;;;25.15;50.07
35778;BME280;21899;42.662;23.316;2023-08-17T05:02:50;94490.13;;;25.08;50.26
35778;BME280;21899;42.662;23.316;2023-08-17T05:05:16;94491.25;;;25.16;49.72
35778;BME280;21899;42.662;23.316;2023-08-17T05:07:42;94492.03;;;25.51;49.32
35778;BME280;21899;42.662;23.316;2023-08-17T05:10:07;94488.75;;;25.67;48.26
35778;BME280;21899;42.662;23.316;2023-08-17T05:12:33;94492.31;;;25.73;48.23
35778;BME280;21899;42.662;23.316;2023-08-17T05:14:58;94492.88;;;25.78;47.95
35778;BME280;21899;42.662;23.316;2023-08-17T05:17:23;94491.63;;;25.79;46.99
35778;BME280;21899;42.662;23.316;2023-08-17T05:19:49;94485.88;;;25.97;47.52
35778;BME280;21899;42.662;23.316;2023-08-17T05:22:15;94493.81;;;26.09;46.83
35778;BME280;21899;42.662;23.316;2023-08-17T05:24:40;94495.91;;;26.00;46.31
35778;BME280;21899;42.662;23.316;2023-08-17T05:27:06;94494.97;;;26.03;46.52
35778;BME280;21899;42.662;23.316;2023-08-17T05:29:31;94491.66;;;25.99;46.74
35778;BME280;21899;42.662;23.316;2023-08-17T05:31:59;94501.56;;;26.11;47.19
35778;BME280;21899;42.662;23.316;2023-08-17T05:34:25;94497.72;;;26.23;47.15
35778;BME280;21899;42.662;23.316;2023-08-17T05:36:50;94503.03;;;26.32;47.77
35778;BME280;21899;42.662;23.316;2023-08-17T05:39:15;94504.16;;;26.00;48.01
35778;BME280;21899;42.662;23.316;2023-08-17T05:41:41;94494.91;;;25.62;49.26
35778;BME280;21899;42.662;23.316;2023-08-17T05:44:06;94502.16;;;25.31;50.56
35778;BME280;21899;42.662;23.316;2023-08-17T05:46:33;94497.72;;;25.33;50.42
35778;BME280;21899;42.662;23.316;2023-08-17T05:48:58;94500.66;;;25.44;50.85
35778;BME280;21899;42.662;23.316;2023-08-17T05:51:24;94508.50;;;25.22;50.96
35778;BME280;21899;42.662;23.316;2023-08-17T05:53:49;94508.19;;;25.00;52.15
35778;BME280;21899;42.662;23.316;2023-08-17T05:56:15;94507.44;;;24.71;53.28
35778;BME280;21899;42.662;23.316;2023-08-17T05:58:40;94523.56;;;24.83;53.74
35778;BME280;21899;42.662;23.316;2023-08-17T06:01:10;94517.47;;;24.50;55.91
35778;BME280;21899;42.662;23.316;2023-08-17T06:03:36;94511.41;;;24.31;57.04
35778;BME280;21899;42.662;23.316;2023-08-17T06:06:03;94519.75;;;24.52;57.47
35778;BME280;21899;42.662;23.316;2023-08-17T06:08:29;94517.59;;;24.56;56.91
35778;BME280;21899;42.662;23.316;2023-08-17T06:10:55;94527.50;;;24.68;55.37
35778;BME280;21899;42.662;23.316;2023-08-17T06:13:21;94526.31;;;24.69;55.22
35778;BME280;21899;42.662;23.316;2023-08-17T06:15:46;94517.34;;;24.68;55.28
35778;BME280;21899;42.662;23.316;2023-08-17T06:18:12;94516.31;;;24.80;54.06
35778;BME280;21899;42.662;23.316;2023-08-17T06:20:37;94502.13;;;24.67;53.99
35778;BME280;21899;42.662;23.316;2023-08-17T06:23:03;94518.19;;;24.89;54.12
35778;BME280;21899;42.662;23.316;2023-08-17T06:25:29;94505.06;;;24.93;53.36
35778;BME280;21899;42.662;23.316;2023-08-17T06:27:54;94518.19;;;25.03;53.22
35778;BME280;21899;42.662;23.316;2023-08-17T06:30:20;94515.06;;;25.10;53.53
35778;BME280;21899;42.662;23.316;2023-08-17T06:32:46;94512.19;;;25.19;53.85
35778;BME280;21899;42.662;23.316;2023-08-17T06:35:11;94516.13;;;25.47;53.86
35778;BME280;21899;42.662;23.316;2023-08-17T06:37:36;94514.25;;;25.53;54.67
35778;BME280;21899;42.662;23.316;2023-08-17T06:40:03;94518.09;;;25.61;55.12
35778;BME280;21899;42.662;23.316;2023-08-17T06:42:30;94513.84;;;25.81;55.37
35778;BME280;21899;42.662;23.316;2023-08-17T06:44:56;94520.72;;;25.91;54.15
35778;BME280;21899;42.662;23.316;2023-08-17T06:47:21;94523.75;;;25.93;54.42
35778;BME280;21899;42.662;23.316;2023-08-17T06:49:46;94527.38;;;25.84;53.76
35778;BME280;21899;42.662;23.316;2023-08-17T06:52:12;94532.31;;;26.00;53.17
35778;BME280;21899;42.662;23.316;2023-08-17T06:54:37;94512.56;;;25.96;51.76
35778;BME280;21899;42.662;23.316;2023-08-17T06:57:03;94511.81;;;25.96;51.81
35778;BME280;21899;42.662;23.316;2023-08-17T06:59:28;94514.59;;;26.16;52.06
35778;BME280;21899;42.662;23.316;2023-08-17T07:01:54;94521.56;;;26.37;50.89
35778;BME280;21899;42.662;23.316;2023-08-17T07:04:19;94525.94;;;26.49;50.07
35778;BME280;21899;42.662;23.316;2023-08-17T07:06:44;94522.06;;;26.61;50.86
35778;BME280;21899;42.662;23.316;2023-08-17T07:09:10;94526.56;;;26.84;50.40
35778;BME280;21899;42.662;23.316;2023-08-17T07:11:37;94532.53;;;26.82;48.07
35778;BME280;21899;42.662;23.316;2023-08-17T07:14:03;94516.00;;;26.77;47.33
35778;BME280;21899;42.662;23.316;2023-08-17T07:16:28;94521.31;;;26.86;47.22
35778;BME280;21899;42.662;23.316;2023-08-17T07:18:54;94518.84;;;26.88;45.39
35778;BME280;21899;42.662;23.316;2023-08-17T07:21:19;94525.41;;;26.96;45.98
35778;BME280;21899;42.662;23.316;2023-08-17T07:23:45;94525.78;;;27.09;45.52
35778;BME280;21899;42.662;23.316;2023-08-17T07:26:11;94516.53;;;27.07;45.47
35778;BME280;21899;42.662;23.316;2023-08-17T07:28:36;94510.22;;;27.01;45.50
35778;BME280;21899;42.662;23.316;2023-08-17T07:31:01;94529.13;;;27.24;42.43
35778;BME280;21899;42.662;23.316;2023-08-17T07:33:27;94512.84;;;27.46;43.26
35778;BME280;21899;42.662;23.316;2023-08-17T07:35:52;94519.94;;;27.58;41.13
35778;BME280;21899;42.662;23.316;2023-08-17T07:38:19;94512.84;;;27.46;41.55
35778;BME280;21899;42.662;23.316;2023-08-17T07:40:45;94514.34;;;27.47;41.58
35778;BME280;21899;42.662;23.316;2023-08-17T07:43:10;94514.69;;;27.60;41.67
35778;BME280;21899;42.662;23.316;2023-08-17T07:45:35;94523.06;;;27.82;41.14
35778;BME280;21899;42.662;23.316;2023-08-17T07:48:01;94512.50;;;27.75;41.00
35778;BME280;21899;42.662;23.316;2023-08-17T07:50:26;94521.44;;;27.59;42.79
35778;BME280;21899;42.662;23.316;2023-08-17T07:52:52;94517.13;;;27.53;41.99
35778;BME280;21899;42.662;23.316;2023-08-17T07:55:17;94515.75;;;27.68;42.23
35778;BME280;21899;42.662;23.316;2023-08-17T07:57:42;94520.16;;;27.91;42.22
35778;BME280;21899;42.662;23.316;2023-08-17T08:00:08;94517.72;;;28.04;41.83
35778;BME280;21899;42.662;23.316;2023-08-17T08:02:34;94517.28;;;28.23;42.35
35778;BME280;21899;42.662;23.316;2023-08-17T08:05:00;94516.28;;;28.26;41.62
35778;BME280;21899;42.662;23.316;2023-08-17T08:07:25;94504.16;;;27.95;41.20
35778;BME280;21899;42.662;23.316;2023-08-17T08:09:50;94499.19;;;27.99;41.44
35778;BME280;21899;42.662;23.316;2023-08-17T08:12:16;94497.38;;;27.91;41.05
35778;BME280;21899;42.662;23.316;2023-08-17T08:14:41;94494.34;;;27.89;40.86
35778;BME280;21899;42.662;23.316;2023-08-17T08:17:06;94502.81;;;27.80;41.19
35778;BME280;21899;42.662;23.316;2023-08-17T08:19:32;94497.31;;;27.80;41.59
35778;BME280;21899;42.662;23.316;2023-08-17T08:21:58;94500.81;;;27.86;41.21
35778;BME280;21899;42.662;23.316;2023-08-17T08:24:23;94501.59;;;27.86;41.82
35778;BME280;21899;42.662;23.316;2023-08-17T08:26:49;94506.72;;;28.10;41.99
35778;BME280;21899;42.662;23.316;2023-08-17T08:29:16;94503.00;;;28.13;41.41
35778;BME280;21899;42.662;23.316;2023-08-17T08:31:41;94496.78;;;28.29;41.39
35778;BME280;21899;42.662;23.316;2023-08-17T08:34:06;94496.78;;;28.35;41.42
35778;BME280;21899;42.662;23.316;2023-08-17T08:36:32;94500.78;;;28.34;41.19
35778;BME280;21899;42.662;23.316;2023-08-17T08:38:57;94501.03;;;28.30;41.49
35778;BME280;21899;42.662;23.316;2023-08-17T08:41:26;94493.28;;;28.29;41.42
35778;BME280;21899;42.662;23.316;2023-08-17T08:43:52;94489.78;;;28.34;41.65
35778;BME280;21899;42.662;23.316;2023-08-17T08:46:18;94505.41;;;28.59;42.05
35778;BME280;21899;42.662;23.316;2023-08-17T08:48:48;94489.13;;;28.61;41.19
35778;BME280;21899;42.662;23.316;2023-08-17T08:51:16;94500.66;;;28.70;40.84
35778;BME280;21899;42.662;23.316;2023-08-17T08:53:48;94479.88;;;28.53;41.78
35778;BME280;21899;42.662;23.316;2023-08-17T08:56:19;94502.41;;;28.68;42.04
35778;BME280;21899;42.662;23.316;2023-08-17T08:58:47;94495.44;;;28.89;41.43
35778;BME280;21899;42.662;23.316;2023-08-17T09:01:12;94484.94;;;29.04;40.63
35778;BME280;21899;42.662;23.316;2023-08-17T09:03:40;94480.69;;;29.08;40.26
35778;BME280;21899;42.662;23.316;2023-08-17T09:06:07;94472.91;;;29.18;40.29
35778;BME280;21899;42.662;23.316;2023-08-17T09:08:33;94474.41;;;29.30;39.92
35778;BME280;21899;42.662;23.316;2023-08-17T09:10:59;94472.38;;;29.36;39.83
35778;BME280;21899;42.662;23.316;2023-08-17T09:13:24;94465.56;;;29.65;39.36
35778;BME280;21899;42.662;23.316;2023-08-17T09:15:49;94469.56;;;29.80;39.54
35778;BME280;21899;42.662;23.316;2023-08-17T09:18:16;94470.03;;;29.90;38.79
35778;BME280;21899;42.662;23.316;2023-08-17T09:20:46;94476.28;;;29.90;38.76
35778;BME280;21899;42.662;23.316;2023-08-17T09:23:16;94470.31;;;29.75;39.15
35778;BME280;21899;42.662;23.316;2023-08-17T09:25:44;94455.81;;;29.69;38.95
35778;BME280;21899;42.662;23.316;2023-08-17T09:28:11;94464.56;;;29.73;39.03
35778;BME280;21899;42.662;23.316;2023-08-17T09:33:18;94462.78;;;29.81;38.65
35778;BME280;21899;42.662;23.316;2023-08-17T09:35:44;94445.16;;;29.95;38.35
35778;BME280;21899;42.662;23.316;2023-08-17T09:38:09;94432.59;;;30.05;37.66
35778;BME280;21899;42.662;23.316;2023-08-17T09:40:34;94446.13;;;30.03;37.24
35778;BME280;21899;42.662;23.316;2023-08-17T09:43:02;94444.13;;;30.09;36.99
35778;BME280;21899;42.662;23.316;2023-08-17T09:45:27;94441.56;;;30.28;36.79
35778;BME280;21899;42.662;23.316;2023-08-17T09:47:53;94434.16;;;30.41;35.87
35778;BME280;21899;42.662;23.316;2023-08-17T09:50:22;94435.44;;;30.40;35.79
35778;BME280;21899;42.662;23.316;2023-08-17T09:52:52;94425.84;;;30.52;36.21
35778;BME280;21899;42.662;23.316;2023-08-17T09:55:18;94421.66;;;30.76;35.78
35778;BME280;21899;42.662;23.316;2023-08-17T09:57:45;94417.13;;;30.78;34.77
35778;BME280;21899;42.662;23.316;2023-08-17T10:00:12;94410.28;;;30.85;34.10
35778;BME280;21899;42.662;23.316;2023-08-17T10:02:38;94428.31;;;30.91;33.74
35778;BME280;21899;42.662;23.316;2023-08-17T10:05:05;94420.53;;;30.90;33.73
35778;BME280;21899;42.662;23.316;2023-08-17T10:07:32;94421.91;;;30.72;34.02
35778;BME280;21899;42.662;23.316;2023-08-17T10:10:05;94416.97;;;30.59;34.22
35778;BME280;21899;42.662;23.316;2023-08-17T10:12:40;94406.44;;;30.58;34.31
35778;BME280;21899;42.662;23.316;2023-08-17T10:15:10;94408.28;;;30.44;34.39
35778;BME280;21899;42.662;23.316;2023-08-17T10:20:18;94406.91;;;30.62;34.02
35778;BME280;21899;42.662;23.316;2023-08-17T10:22:49;94418.13;;;30.81;33.58
35778;BME280;21899;42.662;23.316;2023-08-17T10:25:17;94410.41;;;30.98;32.74
35778;BME280;21899;42.662;23.316;2023-08-17T10:27:45;94411.94;;;30.99;32.92
35778;BME280;21899;42.662;23.316;2023-08-17T10:30:11;94418.44;;;31.01;32.10
35778;BME280;21899;42.662;23.316;2023-08-17T10:32:37;94411.88;;;31.04;32.44
35778;BME280;21899;42.662;23.316;2023-08-17T10:35:04;94403.28;;;31.08;32.12
35778;BME280;21899;42.662;23.316;2023-08-17T10:37:30;94413.09;;;31.09;32.34
35778;BME280;21899;42.662;23.316;2023-08-17T10:39:56;94407.34;;;31.31;31.92
35778;BME280;21899;42.662;23.316;2023-08-17T10:42:35;94407.34;;;31.36;31.71
35778;BME280;21899;42.662;23.316;2023-08-17T10:47:46;94393.25;;;31.34;31.54
35778;BME280;21899;42.662;23.316;2023-08-17T10:50:24;94402.53;;;31.61;31.50
35778;BME280;21899;42.662;23.316;2023-08-17T10:52:51;94386.06;;;31.50;31.22
35778;BME280;21899;42.662;23.316;2023-08-17T10:55:35;94389.00;;;31.57;31.32
35778;BME280;21899;42.662;23.316;2023-08-17T10:58:01;94399.19;;;31.44;31.45
35778;BME280;21899;42.662;23.316;2023-08-17T11:00:32;94391.50;;;31.37;30.92
35778;BME280;21899;42.662;23.316;2023-08-17T11:03:09;94379.25;;;31.51;30.58
35778;BME280;21899;42.662;23.316;2023-08-17T11:05:48;94390.06;;;31.73;30.72
35778;BME280;21899;42.662;23.316;2023-08-17T11:13:33;94383.75;;;31.54;31.43
35778;BME280;21899;42.662;23.316;2023-08-17T11:15:59;94377.63;;;31.61;32.44
35778;BME280;21899;42.662;23.316;2023-08-17T11:18:25;94386.75;;;31.56;33.42
35778;BME280;21899;42.662;23.316;2023-08-17T11:20:50;94382.34;;;31.66;32.59
35778;BME280;21899;42.662;23.316;2023-08-17T11:23:17;94378.69;;;31.58;33.38
35778;BME280;21899;42.662;23.316;2023-08-17T11:25:43;94370.63;;;31.60;33.71
35778;BME280;21899;42.662;23.316;2023-08-17T11:28:09;94364.84;;;31.34;34.23
35778;BME280;21899;42.662;23.316;2023-08-17T11:30:34;94366.16;;;31.27;34.19
35778;BME280;21899;42.662;23.316;2023-08-17T11:33:02;94366.00;;;31.20;34.04
35778;BME280;21899;42.662;23.316;2023-08-17T11:35:28;94361.22;;;31.20;34.12
35778;BME280;21899;42.662;23.316;2023-08-17T11:37:53;94358.25;;;31.13;33.76
35778;BME280;21899;42.662;23.316;2023-08-17T11:40:19;94351.56;;;31.03;34.07
35778;BME280;21899;42.662;23.316;2023-08-17T11:42:45;94357.44;;;30.94;34.09
35778;BME280;21899;42.662;23.316;2023-08-17T11:45:12;94358.03;;;31.11;34.53
35778;BME280;21899;42.662;23.316;2023-08-17T11:47:38;94354.13;;;31.25;34.25
35778;BME280;21899;42.662;23.316;2023-08-17T11:50:06;94357.91;;;31.70;33.50
35778;BME280;21899;42.662;23.316;2023-08-17T11:52:32;94353.63;;;31.69;33.46
35778;BME280;21899;42.662;23.316;2023-08-17T11:55:01;94356.72;;;31.84;33.34
35778;BME280;21899;42.662;23.316;2023-08-17T11:57:26;94358.72;;;31.83;33.42
35778;BME280;21899;42.662;23.316;2023-08-17T11:59:55;94358.00;;;31.83;33.38
35778;BME280;21899;42.662;23.316;2023-08-17T12:02:23;94354.06;;;31.97;33.41
35778;BME280;21899;42.662;23.316;2023-08-17T12:04:50;94356.59;;;32.14;33.35
35778;BME280;21899;42.662;23.316;2023-08-17T12:07:16;94356.88;;;32.29;32.88
35778;BME280;21899;42.662;23.316;2023-08-17T12:09:43;94357.72;;;32.42;32.82
35778;BME280;21899;42.662;23.316;2023-08-17T12:12:09;94353.47;;;32.23;33.20
35778;BME280;21899;42.662;23.316;2023-08-17T12:14:35;94349.84;;;32.28;33.41
35778;BME280;21899;42.662;23.316;2023-08-17T12:17:01;94337.44;;;32.16;32.74
35778;BME280;21899;42.662;23.316;2023-08-17T12:19:27;94335.72;;;32.31;32.89
35778;BME280;21899;42.662;23.316;2023-08-17T12:21:52;94360.19;;;32.27;32.36
35778;BME280;21899;42.662;23.316;2023-08-17T12:24:18;94350.63;;;32.10;33.21
35778;BME280;21899;42.662;23.316;2023-08-17T12:26:45;94340.88;;;32.22;32.84
35778;BME280;21899;42.662;23.316;2023-08-17T12:29:12;94344.28;;;32.46;32.56
35778;BME280;21899;42.662;23.316;2023-08-17T12:31:37;94345.13;;;32.41;32.68
35778;BME280;21899;42.662;23.316;2023-08-17T12:34:03;94333.97;;;32.28;32.43
35778;BME280;21899;42.662;23.316;2023-08-17T12:36:31;94346.81;;;32.63;32.10
35778;BME280;21899;42.662;23.316;2023-08-17T12:38:57;94340.59;;;32.88;32.05
35778;BME280;21899;42.662;23.316;2023-08-17T12:41:23;94340.34;;;32.73;32.35
35778;BME280;21899;42.662;23.316;2023-08-17T12:43:48;94340.78;;;32.77;32.81
35778;BME280;21899;42.662;23.316;2023-08-17T12:46:13;94337.03;;;32.75;32.40
35778;BME280;21899;42.662;23.316;2023-08-17T12:48:39;94340.59;;;32.88;32.32
35778;BME280;21899;42.662;23.316;2023-08-17T12:51:04;94338.66;;;32.83;32.04
35778;BME280;21899;42.662;23.316;2023-08-17T12:53:30;94347.38;;;32.74;32.54
35778;BME280;21899;42.662;23.316;2023-08-17T12:55:56;94358.22;;;32.59;35.69
35778;BME280;21899;42.662;23.316;2023-08-17T12:58:21;94344.56;;;32.11;37.24
35778;BME280;21899;42.662;23.316;2023-08-17T13:00:47;94342.22;;;31.78;37.92
35778;BME280;21899;42.662;23.316;2023-08-17T13:03:15;94330.59;;;31.61;38.57